sensor_id;sensor_type;location;lat;lon;timestamp;P1;durP1;ratioP1;P2;durP2;ratioP2
39654;SDS011;25336;59.944;11.010;2024-03-17T00:00:05;2.25;;;1.08;;
39654;SDS011;25336;59.944;11.010;2024-03-17T00:02:33;1.98;;;1.20;;
39654;SDS011;25336;59.944;11.010;2024-03-17T00:04:59;5.55;;;3.20;;
39654;SDS011;25336;59.944;11.010;2024-03-17T00:07:24;6.53;;;4.07;;
39654;SDS011;25336;59.944;11.010;2024-03-17T00:09:50;6.10;;;3.45;;
39654;SDS011;25336;59.944;11.010;2024-03-17T00:12:16;6.30;;;2.42;;
39654;SDS011;25336;59.944;11.010;2024-03-17T00:14:41;2.63;;;1.50;;
39654;SDS011;25336;59.944;11.010;2024-03-17T00:17:08;5.75;;;1.48;;
39654;SDS011;25336;59.944;11.010;2024-03-17T00:19:33;2.33;;;1.23;;
39654;SDS011;25336;59.944;11.010;2024-03-17T00:21:59;3.65;;;1.30;;
39654;SDS011;25336;59.944;11.010;2024-03-17T00:24:24;2.97;;;1.30;;
39654;SDS011;25336;59.944;11.010;2024-03-17T00:26:50;3.22;;;1.45;;
39654;SDS011;25336;59.944;11.010;2024-03-17T00:29:16;1.45;;;0.90;;
39654;SDS011;25336;59.944;11.010;2024-03-17T00:31:41;1.20;;;1.10;;
39654;SDS011;25336;59.944;11.010;2024-03-17T00:34:07;0.80;;;0.80;;
39654;SDS011;25336;59.944;11.010;2024-03-17T00:36:36;1.52;;;1.20;;
39654;SDS011;25336;59.944;11.010;2024-03-17T00:39:01;2.92;;;1.20;;
39654;SDS011;25336;59.944;11.010;2024-03-17T00:41:28;3.65;;;1.45;;
39654;SDS011;25336;59.944;11.010;2024-03-17T00:43:53;4.18;;;2.00;;
39654;SDS011;25336;59.944;11.010;2024-03-17T00:46:20;3.40;;;1.33;;
39654;SDS011;25336;59.944;11.010;2024-03-17T00:48:47;1.90;;;0.90;;
39654;SDS011;25336;59.944;11.010;2024-03-17T00:51:14;0.95;;;0.82;;
39654;SDS011;25336;59.944;11.010;2024-03-17T00:53:40;2.58;;;1.00;;
39654;SDS011;25336;59.944;11.010;2024-03-17T00:56:06;1.67;;;1.10;;
39654;SDS011;25336;59.944;11.010;2024-03-17T00:58:34;1.20;;;1.02;;
39654;SDS011;25336;59.944;11.010;2024-03-17T01:01:01;4.05;;;1.05;;
39654;SDS011;25336;59.944;11.010;2024-03-17T01:03:27;3.40;;;1.10;;
39654;SDS011;25336;59.944;11.010;2024-03-17T01:05:54;2.15;;;1.30;;
39654;SDS011;25336;59.944;11.010;2024-03-17T01:08:20;0.82;;;0.82;;
39654;SDS011;25336;59.944;11.010;2024-03-17T01:10:48;1.00;;;0.90;;
39654;SDS011;25336;59.944;11.010;2024-03-17T01:13:17;0.93;;;0.80;;
39654;SDS011;25336;59.944;11.010;2024-03-17T01:15:43;3.20;;;1.25;;
39654;SDS011;25336;59.944;11.010;2024-03-17T01:18:09;1.65;;;1.00;;
39654;SDS011;25336;59.944;11.010;2024-03-17T01:20:35;2.28;;;1.23;;
39654;SDS011;25336;59.944;11.010;2024-03-17T01:23:05;2.15;;;1.08;;
39654;SDS011;25336;59.944;11.010;2024-03-17T01:25:32;3.50;;;1.23;;
39654;SDS011;25336;59.944;11.010;2024-03-17T01:28:01;1.83;;;1.05;;
39654;SDS011;25336;59.944;11.010;2024-03-17T01:30:26;2.58;;;0.93;;
39654;SDS011;25336;59.944;11.010;2024-03-17T01:32:52;2.17;;;1.27;;
39654;SDS011;25336;59.944;11.010;2024-03-17T01:35:18;1.20;;;1.10;;
39654;SDS011;25336;59.944;11.010;2024-03-17T01:37:43;2.08;;;1.33;;
39654;SDS011;25336;59.944;11.010;2024-03-17T01:40:09;1.35;;;1.13;;
39654;SDS011;25336;59.944;11.010;2024-03-17T01:42:40;1.05;;;1.00;;
39654;SDS011;25336;59.944;11.010;2024-03-17T01:47:52;2.13;;;1.10;;
39654;SDS011;25336;59.944;11.010;2024-03-17T01:50:18;1.00;;;0.93;;
39654;SDS011;25336;59.944;11.010;2024-03-17T01:52:49;1.75;;;1.02;;
39654;SDS011;25336;59.944;11.010;2024-03-17T01:55:17;2.25;;;1.13;;
39654;SDS011;25336;59.944;11.010;2024-03-17T01:57:42;1.42;;;1.30;;
39654;SDS011;25336;59.944;11.010;2024-03-17T02:00:09;2.42;;;1.08;;
39654;SDS011;25336;59.944;11.010;2024-03-17T02:02:37;1.35;;;1.10;;
39654;SDS011;25336;59.944;11.010;2024-03-17T02:05:03;4.72;;;1.38;;
39654;SDS011;25336;59.944;11.010;2024-03-17T02:07:29;2.88;;;1.40;;
39654;SDS011;25336;59.944;11.010;2024-03-17T02:09:56;1.45;;;1.20;;
39654;SDS011;25336;59.944;11.010;2024-03-17T02:12:22;3.80;;;1.30;;
39654;SDS011;25336;59.944;11.010;2024-03-17T02:14:48;1.30;;;1.20;;
39654;SDS011;25336;59.944;11.010;2024-03-17T02:17:14;4.85;;;1.40;;
39654;SDS011;25336;59.944;11.010;2024-03-17T02:19:40;3.10;;;1.30;;
39654;SDS011;25336;59.944;11.010;2024-03-17T02:22:15;0.82;;;0.82;;
39654;SDS011;25336;59.944;11.010;2024-03-17T02:24:43;1.67;;;1.10;;
39654;SDS011;25336;59.944;11.010;2024-03-17T02:27:09;1.55;;;1.10;;
39654;SDS011;25336;59.944;11.010;2024-03-17T02:29:35;3.63;;;1.27;;
39654;SDS011;25336;59.944;11.010;2024-03-17T02:32:02;1.17;;;1.08;;
39654;SDS011;25336;59.944;11.010;2024-03-17T02:34:35;2.88;;;1.38;;
39654;SDS011;25336;59.944;11.010;2024-03-17T02:37:03;1.20;;;1.10;;
39654;SDS011;25336;59.944;11.010;2024-03-17T02:39:30;1.00;;;1.00;;
39654;SDS011;25336;59.944;11.010;2024-03-17T02:41:59;2.72;;;0.88;;
39654;SDS011;25336;59.944;11.010;2024-03-17T02:44:30;1.35;;;0.75;;
39654;SDS011;25336;59.944;11.010;2024-03-17T02:47:00;1.02;;;1.00;;
39654;SDS011;25336;59.944;11.010;2024-03-17T02:49:27;1.65;;;1.52;;
39654;SDS011;25336;59.944;11.010;2024-03-17T02:52:00;2.38;;;1.35;;
39654;SDS011;25336;59.944;11.010;2024-03-17T02:54:26;3.53;;;1.85;;
39654;SDS011;25336;59.944;11.010;2024-03-17T02:56:52;1.83;;;1.33;;
39654;SDS011;25336;59.944;11.010;2024-03-17T02:59:18;1.63;;;1.10;;
39654;SDS011;25336;59.944;11.010;2024-03-17T03:01:45;1.63;;;0.93;;
39654;SDS011;25336;59.944;11.010;2024-03-17T03:04:10;1.48;;;1.00;;
39654;SDS011;25336;59.944;11.010;2024-03-17T03:06:36;1.38;;;1.08;;
39654;SDS011;25336;59.944;11.010;2024-03-17T03:09:03;0.93;;;0.90;;
39654;SDS011;25336;59.944;11.010;2024-03-17T03:11:30;1.20;;;1.00;;
39654;SDS011;25336;59.944;11.010;2024-03-17T03:13:56;2.70;;;1.10;;
39654;SDS011;25336;59.944;11.010;2024-03-17T03:16:21;2.13;;;1.00;;
39654;SDS011;25336;59.944;11.010;2024-03-17T03:18:50;3.33;;;1.00;;
39654;SDS011;25336;59.944;11.010;2024-03-17T03:21:15;1.20;;;1.13;;
39654;SDS011;25336;59.944;11.010;2024-03-17T03:23:42;3.15;;;1.45;;
39654;SDS011;25336;59.944;11.010;2024-03-17T03:26:09;1.70;;;1.60;;
39654;SDS011;25336;59.944;11.010;2024-03-17T03:28:35;2.13;;;1.90;;
39654;SDS011;25336;59.944;11.010;2024-03-17T03:31:01;2.85;;;2.35;;
39654;SDS011;25336;59.944;11.010;2024-03-17T03:33:27;5.50;;;2.90;;
39654;SDS011;25336;59.944;11.010;2024-03-17T03:35:53;2.45;;;1.88;;
39654;SDS011;25336;59.944;11.010;2024-03-17T03:38:20;2.30;;;1.58;;
39654;SDS011;25336;59.944;11.010;2024-03-17T03:40:48;6.10;;;1.38;;
39654;SDS011;25336;59.944;11.010;2024-03-17T03:43:14;2.38;;;1.30;;
39654;SDS011;25336;59.944;11.010;2024-03-17T03:45:40;0.90;;;0.90;;
39654;SDS011;25336;59.944;11.010;2024-03-17T03:48:08;2.53;;;1.15;;
39654;SDS011;25336;59.944;11.010;2024-03-17T03:50:34;0.80;;;0.80;;
39654;SDS011;25336;59.944;11.010;2024-03-17T03:53:00;1.10;;;1.10;;
39654;SDS011;25336;59.944;11.010;2024-03-17T03:55:26;1.17;;;0.95;;
39654;SDS011;25336;59.944;11.010;2024-03-17T03:57:53;6.07;;;3.42;;
39654;SDS011;25336;59.944;11.010;2024-03-17T04:00:19;2.65;;;1.60;;
39654;SDS011;25336;59.944;11.010;2024-03-17T04:02:49;1.42;;;1.30;;
39654;SDS011;25336;59.944;11.010;2024-03-17T04:05:18;1.30;;;1.20;;
39654;SDS011;25336;59.944;11.010;2024-03-17T04:07:45;0.80;;;0.80;;
39654;SDS011;25336;59.944;11.010;2024-03-17T04:10:12;6.53;;;2.35;;
39654;SDS011;25336;59.944;11.010;2024-03-17T04:12:39;2.03;;;1.15;;
39654;SDS011;25336;59.944;11.010;2024-03-17T04:15:05;1.65;;;1.10;;
39654;SDS011;25336;59.944;11.010;2024-03-17T04:17:35;1.25;;;1.13;;
39654;SDS011;25336;59.944;11.010;2024-03-17T04:20:02;1.95;;;1.23;;
39654;SDS011;25336;59.944;11.010;2024-03-17T04:22:29;3.33;;;1.90;;
39654;SDS011;25336;59.944;11.010;2024-03-17T04:24:54;3.63;;;1.50;;
39654;SDS011;25336;59.944;11.010;2024-03-17T04:27:21;1.40;;;1.30;;
39654;SDS011;25336;59.944;11.010;2024-03-17T04:29:48;1.30;;;1.20;;
39654;SDS011;25336;59.944;11.010;2024-03-17T04:32:20;1.30;;;1.20;;
39654;SDS011;25336;59.944;11.010;2024-03-17T04:34:46;1.50;;;1.30;;
39654;SDS011;25336;59.944;11.010;2024-03-17T04:37:12;1.88;;;1.10;;
39654;SDS011;25336;59.944;11.010;2024-03-17T04:39:41;2.80;;;1.10;;
39654;SDS011;25336;59.944;11.010;2024-03-17T04:42:11;0.95;;;0.95;;
39654;SDS011;25336;59.944;11.010;2024-03-17T04:47:05;1.67;;;0.82;;
39654;SDS011;25336;59.944;11.010;2024-03-17T04:49:38;1.85;;;1.05;;
39654;SDS011;25336;59.944;11.010;2024-03-17T04:52:04;1.02;;;0.90;;
39654;SDS011;25336;59.944;11.010;2024-03-17T04:54:32;0.88;;;0.88;;
39654;SDS011;25336;59.944;11.010;2024-03-17T04:57:00;0.80;;;0.80;;
39654;SDS011;25336;59.944;11.010;2024-03-17T04:59:26;0.73;;;0.73;;
39654;SDS011;25336;59.944;11.010;2024-03-17T05:01:52;1.00;;;0.90;;
39654;SDS011;25336;59.944;11.010;2024-03-17T05:04:19;0.90;;;0.90;;
39654;SDS011;25336;59.944;11.010;2024-03-17T05:06:45;1.00;;;0.85;;
39654;SDS011;25336;59.944;11.010;2024-03-17T05:09:18;1.08;;;0.88;;
39654;SDS011;25336;59.944;11.010;2024-03-17T05:11:44;3.22;;;2.30;;
39654;SDS011;25336;59.944;11.010;2024-03-17T05:14:10;1.55;;;1.08;;
39654;SDS011;25336;59.944;11.010;2024-03-17T05:16:36;14.32;;;5.50;;
39654;SDS011;25336;59.944;11.010;2024-03-17T05:19:02;5.93;;;3.22;;
39654;SDS011;25336;59.944;11.010;2024-03-17T05:21:28;2.45;;;1.80;;
39654;SDS011;25336;59.944;11.010;2024-03-17T05:23:55;2.30;;;1.38;;
39654;SDS011;25336;59.944;11.010;2024-03-17T05:26:25;1.88;;;1.15;;
39654;SDS011;25336;59.944;11.010;2024-03-17T05:28:50;1.15;;;1.15;;
39654;SDS011;25336;59.944;11.010;2024-03-17T05:31:16;1.15;;;1.05;;
39654;SDS011;25336;59.944;11.010;2024-03-17T05:33:43;1.00;;;1.00;;
39654;SDS011;25336;59.944;11.010;2024-03-17T05:36:09;1.83;;;1.38;;
39654;SDS011;25336;59.944;11.010;2024-03-17T05:38:35;1.27;;;1.17;;
39654;SDS011;25336;59.944;11.010;2024-03-17T05:41:05;1.23;;;1.13;;
39654;SDS011;25336;59.944;11.010;2024-03-17T05:43:32;1.35;;;1.17;;
39654;SDS011;25336;59.944;11.010;2024-03-17T05:46:03;3.47;;;1.83;;
39654;SDS011;25336;59.944;11.010;2024-03-17T05:48:31;6.22;;;2.78;;
39654;SDS011;25336;59.944;11.010;2024-03-17T05:50:57;4.82;;;2.75;;
39654;SDS011;25336;59.944;11.010;2024-03-17T05:53:25;5.55;;;1.95;;
39654;SDS011;25336;59.944;11.010;2024-03-17T05:55:51;2.10;;;1.50;;
39654;SDS011;25336;59.944;11.010;2024-03-17T05:58:17;1.63;;;1.25;;
39654;SDS011;25336;59.944;11.010;2024-03-17T06:00:42;3.17;;;1.40;;
39654;SDS011;25336;59.944;11.010;2024-03-17T06:03:09;1.38;;;0.90;;
39654;SDS011;25336;59.944;11.010;2024-03-17T06:05:35;2.65;;;1.40;;
39654;SDS011;25336;59.944;11.010;2024-03-17T06:08:03;2.90;;;1.20;;
39654;SDS011;25336;59.944;11.010;2024-03-17T06:10:33;1.10;;;1.10;;
39654;SDS011;25336;59.944;11.010;2024-03-17T06:12:59;1.20;;;1.10;;
39654;SDS011;25336;59.944;11.010;2024-03-17T06:15:26;2.80;;;1.40;;
39654;SDS011;25336;59.944;11.010;2024-03-17T06:17:55;3.28;;;1.60;;
39654;SDS011;25336;59.944;11.010;2024-03-17T06:20:21;1.67;;;1.35;;
39654;SDS011;25336;59.944;11.010;2024-03-17T06:22:49;1.30;;;1.13;;
39654;SDS011;25336;59.944;11.010;2024-03-17T06:25:15;4.50;;;3.28;;
39654;SDS011;25336;59.944;11.010;2024-03-17T06:27:41;7.20;;;4.82;;
39654;SDS011;25336;59.944;11.010;2024-03-17T06:30:10;4.22;;;2.92;;
39654;SDS011;25336;59.944;11.010;2024-03-17T06:32:44;4.78;;;3.42;;
39654;SDS011;25336;59.944;11.010;2024-03-17T06:35:10;2.55;;;2.17;;
39654;SDS011;25336;59.944;11.010;2024-03-17T06:37:42;4.47;;;3.25;;
39654;SDS011;25336;59.944;11.010;2024-03-17T06:40:12;8.65;;;6.32;;
39654;SDS011;25336;59.944;11.010;2024-03-17T06:42:41;4.80;;;4.30;;
39654;SDS011;25336;59.944;11.010;2024-03-17T06:45:07;2.88;;;2.55;;
39654;SDS011;25336;59.944;11.010;2024-03-17T06:47:36;3.58;;;3.28;;
39654;SDS011;25336;59.944;11.010;2024-03-17T06:50:06;4.50;;;4.05;;
39654;SDS011;25336;59.944;11.010;2024-03-17T06:52:35;9.63;;;4.25;;
39654;SDS011;25336;59.944;11.010;2024-03-17T06:55:01;3.03;;;2.67;;
39654;SDS011;25336;59.944;11.010;2024-03-17T06:57:27;5.10;;;1.60;;
39654;SDS011;25336;59.944;11.010;2024-03-17T06:59:53;1.35;;;1.20;;
39654;SDS011;25336;59.944;11.010;2024-03-17T07:02:20;1.58;;;1.33;;
39654;SDS011;25336;59.944;11.010;2024-03-17T07:04:46;1.10;;;1.00;;
39654;SDS011;25336;59.944;11.010;2024-03-17T07:07:12;3.75;;;1.20;;
39654;SDS011;25336;59.944;11.010;2024-03-17T07:09:39;1.00;;;0.90;;
39654;SDS011;25336;59.944;11.010;2024-03-17T07:12:06;1.48;;;1.38;;
39654;SDS011;25336;59.944;11.010;2024-03-17T07:14:37;3.40;;;2.63;;
39654;SDS011;25336;59.944;11.010;2024-03-17T07:17:03;5.05;;;2.78;;
39654;SDS011;25336;59.944;11.010;2024-03-17T07:19:29;3.47;;;1.90;;
39654;SDS011;25336;59.944;11.010;2024-03-17T07:21:56;2.83;;;1.65;;
39654;SDS011;25336;59.944;11.010;2024-03-17T07:24:22;3.22;;;1.55;;
39654;SDS011;25336;59.944;11.010;2024-03-17T07:26:48;1.60;;;1.27;;
39654;SDS011;25336;59.944;11.010;2024-03-17T07:29:14;1.98;;;1.38;;
39654;SDS011;25336;59.944;11.010;2024-03-17T07:31:41;4.28;;;1.60;;
39654;SDS011;25336;59.944;11.010;2024-03-17T07:34:07;1.98;;;1.50;;
39654;SDS011;25336;59.944;11.010;2024-03-17T07:36:33;1.00;;;1.00;;
39654;SDS011;25336;59.944;11.010;2024-03-17T07:38:59;1.65;;;1.45;;
39654;SDS011;25336;59.944;11.010;2024-03-17T07:41:25;2.13;;;1.00;;
39654;SDS011;25336;59.944;11.010;2024-03-17T07:43:50;2.65;;;1.77;;
39654;SDS011;25336;59.944;11.010;2024-03-17T07:46:16;3.20;;;2.10;;
39654;SDS011;25336;59.944;11.010;2024-03-17T07:48:42;2.47;;;2.28;;
39654;SDS011;25336;59.944;11.010;2024-03-17T07:53:36;4.18;;;1.92;;
39654;SDS011;25336;59.944;11.010;2024-03-17T07:56:07;2.78;;;2.00;;
39654;SDS011;25336;59.944;11.010;2024-03-17T07:58:38;6.18;;;2.55;;
39654;SDS011;25336;59.944;11.010;2024-03-17T08:01:08;4.97;;;2.13;;
39654;SDS011;25336;59.944;11.010;2024-03-17T08:03:41;1.73;;;1.08;;
39654;SDS011;25336;59.944;11.010;2024-03-17T08:06:09;4.20;;;1.30;;
39654;SDS011;25336;59.944;11.010;2024-03-17T08:08:38;2.58;;;1.15;;
39654;SDS011;25336;59.944;11.010;2024-03-17T08:11:05;1.75;;;1.40;;
39654;SDS011;25336;59.944;11.010;2024-03-17T08:13:31;1.58;;;1.10;;
39654;SDS011;25336;59.944;11.010;2024-03-17T08:16:01;1.58;;;1.40;;
39654;SDS011;25336;59.944;11.010;2024-03-17T08:18:28;1.35;;;1.25;;
39654;SDS011;25336;59.944;11.010;2024-03-17T08:20:54;3.00;;;1.20;;
39654;SDS011;25336;59.944;11.010;2024-03-17T08:23:20;3.83;;;1.52;;
39654;SDS011;25336;59.944;11.010;2024-03-17T08:28:22;1.67;;;1.58;;
39654;SDS011;25336;59.944;11.010;2024-03-17T08:30:55;2.03;;;1.55;;
39654;SDS011;25336;59.944;11.010;2024-03-17T08:33:21;1.30;;;1.20;;
39654;SDS011;25336;59.944;11.010;2024-03-17T08:38:25;1.33;;;1.00;;
39654;SDS011;25336;59.944;11.010;2024-03-17T08:40:53;3.85;;;1.52;;
39654;SDS011;25336;59.944;11.010;2024-03-17T08:43:23;1.30;;;1.10;;
39654;SDS011;25336;59.944;11.010;2024-03-17T08:45:56;0.85;;;0.85;;
39654;SDS011;25336;59.944;11.010;2024-03-17T08:48:25;1.50;;;1.10;;
39654;SDS011;25336;59.944;11.010;2024-03-17T08:50:52;3.58;;;1.20;;
39654;SDS011;25336;59.944;11.010;2024-03-17T08:53:19;2.55;;;1.23;;
39654;SDS011;25336;59.944;11.010;2024-03-17T08:55:45;1.20;;;1.10;;
39654;SDS011;25336;59.944;11.010;2024-03-17T08:58:10;2.53;;;1.55;;
39654;SDS011;25336;59.944;11.010;2024-03-17T09:00:36;1.92;;;1.48;;
39654;SDS011;25336;59.944;11.010;2024-03-17T09:03:02;1.30;;;1.20;;
39654;SDS011;25336;59.944;11.010;2024-03-17T09:05:28;2.53;;;1.80;;
39654;SDS011;25336;59.944;11.010;2024-03-17T09:07:54;2.10;;;1.58;;
39654;SDS011;25336;59.944;11.010;2024-03-17T09:10:20;3.58;;;1.60;;
39654;SDS011;25336;59.944;11.010;2024-03-17T09:12:46;4.55;;;2.00;;
39654;SDS011;25336;59.944;11.010;2024-03-17T09:15:12;3.28;;;2.28;;
39654;SDS011;25336;59.944;11.010;2024-03-17T09:17:39;3.35;;;1.65;;
39654;SDS011;25336;59.944;11.010;2024-03-17T09:20:05;1.70;;;1.20;;
39654;SDS011;25336;59.944;11.010;2024-03-17T09:22:37;2.28;;;1.60;;
39654;SDS011;25336;59.944;11.010;2024-03-17T09:25:07;1.52;;;1.30;;
39654;SDS011;25336;59.944;11.010;2024-03-17T09:27:34;3.72;;;1.45;;
39654;SDS011;25336;59.944;11.010;2024-03-17T09:30:02;2.63;;;1.63;;
39654;SDS011;25336;59.944;11.010;2024-03-17T09:32:36;1.48;;;1.10;;
39654;SDS011;25336;59.944;11.010;2024-03-17T09:35:02;3.83;;;1.50;;
39654;SDS011;25336;59.944;11.010;2024-03-17T09:37:29;2.67;;;1.30;;
39654;SDS011;25336;59.944;11.010;2024-03-17T09:39:56;3.45;;;1.35;;
39654;SDS011;25336;59.944;11.010;2024-03-17T09:42:26;3.42;;;1.30;;
39654;SDS011;25336;59.944;11.010;2024-03-17T09:44:55;1.95;;;1.30;;
39654;SDS011;25336;59.944;11.010;2024-03-17T09:47:22;4.32;;;1.63;;
39654;SDS011;25336;59.944;11.010;2024-03-17T09:49:49;3.17;;;1.17;;
39654;SDS011;25336;59.944;11.010;2024-03-17T09:52:22;2.97;;;1.42;;
39654;SDS011;25336;59.944;11.010;2024-03-17T09:54:59;0.98;;;0.95;;
39654;SDS011;25336;59.944;11.010;2024-03-17T09:57:27;1.02;;;0.90;;
39654;SDS011;25336;59.944;11.010;2024-03-17T09:59:55;3.08;;;1.20;;
39654;SDS011;25336;59.944;11.010;2024-03-17T10:02:21;1.23;;;1.13;;
39654;SDS011;25336;59.944;11.010;2024-03-17T10:04:47;2.55;;;1.00;;
39654;SDS011;25336;59.944;11.010;2024-03-17T10:07:14;1.65;;;0.98;;
39654;SDS011;25336;59.944;11.010;2024-03-17T10:09:41;2.50;;;1.27;;
39654;SDS011;25336;59.944;11.010;2024-03-17T10:12:27;4.80;;;1.10;;
39654;SDS011;25336;59.944;11.010;2024-03-17T10:15:00;1.35;;;1.25;;
39654;SDS011;25336;59.944;11.010;2024-03-17T10:17:30;0.95;;;0.90;;
39654;SDS011;25336;59.944;11.010;2024-03-17T10:25:25;1.38;;;0.90;;
39654;SDS011;25336;59.944;11.010;2024-03-17T10:27:52;1.63;;;0.82;;
39654;SDS011;25336;59.944;11.010;2024-03-17T10:30:19;2.95;;;0.93;;
39654;SDS011;25336;59.944;11.010;2024-03-17T10:32:51;1.00;;;0.85;;
39654;SDS011;25336;59.944;11.010;2024-03-17T10:35:28;2.53;;;0.80;;
39654;SDS011;25336;59.944;11.010;2024-03-17T10:38:02;1.17;;;1.08;;
39654;SDS011;25336;59.944;11.010;2024-03-17T10:40:35;2.08;;;0.90;;
39654;SDS011;25336;59.944;11.010;2024-03-17T10:43:04;4.32;;;0.90;;
39654;SDS011;25336;59.944;11.010;2024-03-17T10:45:33;0.75;;;0.75;;
39654;SDS011;25336;59.944;11.010;2024-03-17T10:48:06;3.50;;;1.02;;
39654;SDS011;25336;59.944;11.010;2024-03-17T10:50:35;2.10;;;0.90;;
39654;SDS011;25336;59.944;11.010;2024-03-17T10:53:03;1.75;;;1.10;;
39654;SDS011;25336;59.944;11.010;2024-03-17T10:55:42;3.70;;;1.02;;
39654;SDS011;25336;59.944;11.010;2024-03-17T10:58:20;0.55;;;0.52;;
39654;SDS011;25336;59.944;11.010;2024-03-17T11:01:12;0.57;;;0.57;;
39654;SDS011;25336;59.944;11.010;2024-03-17T11:03:39;0.80;;;0.75;;
39654;SDS011;25336;59.944;11.010;2024-03-17T11:06:05;1.50;;;0.70;;
39654;SDS011;25336;59.944;11.010;2024-03-17T11:08:33;1.00;;;0.60;;
39654;SDS011;25336;59.944;11.010;2024-03-17T11:10:59;0.70;;;0.70;;
39654;SDS011;25336;59.944;11.010;2024-03-17T11:13:29;2.35;;;0.88;;
39654;SDS011;25336;59.944;11.010;2024-03-17T11:15:56;1.08;;;0.70;;
39654;SDS011;25336;59.944;11.010;2024-03-17T11:18:31;11.32;;;1.02;;
39654;SDS011;25336;59.944;11.010;2024-03-17T11:21:03;4.40;;;0.80;;
39654;SDS011;25336;59.944;11.010;2024-03-17T11:23:40;6.10;;;0.90;;
39654;SDS011;25336;59.944;11.010;2024-03-17T11:26:06;0.98;;;0.65;;
39654;SDS011;25336;59.944;11.010;2024-03-17T11:34:06;1.38;;;0.70;;
39654;SDS011;25336;59.944;11.010;2024-03-17T11:36:52;1.25;;;0.60;;
39654;SDS011;25336;59.944;11.010;2024-03-17T11:39:21;1.52;;;1.00;;
39654;SDS011;25336;59.944;11.010;2024-03-17T11:42:18;3.05;;;0.70;;
39654;SDS011;25336;59.944;11.010;2024-03-17T11:44:58;1.83;;;0.80;;
39654;SDS011;25336;59.944;11.010;2024-03-17T11:47:38;2.45;;;0.70;;
39654;SDS011;25336;59.944;11.010;2024-03-17T11:50:06;0.98;;;0.75;;
39654;SDS011;25336;59.944;11.010;2024-03-17T11:52:35;2.42;;;1.58;;
39654;SDS011;25336;59.944;11.010;2024-03-17T11:55:01;2.17;;;0.82;;
39654;SDS011;25336;59.944;11.010;2024-03-17T11:57:27;0.57;;;0.57;;
39654;SDS011;25336;59.944;11.010;2024-03-17T11:59:54;2.08;;;0.85;;
39654;SDS011;25336;59.944;11.010;2024-03-17T12:04:48;0.73;;;0.60;;
39654;SDS011;25336;59.944;11.010;2024-03-17T12:07:16;0.95;;;0.80;;
39654;SDS011;25336;59.944;11.010;2024-03-17T12:09:46;0.90;;;0.77;;
39654;SDS011;25336;59.944;11.010;2024-03-17T12:12:22;1.38;;;0.75;;
39654;SDS011;25336;59.944;11.010;2024-03-17T12:14:48;1.08;;;0.85;;
39654;SDS011;25336;59.944;11.010;2024-03-17T12:17:19;2.28;;;0.70;;
39654;SDS011;25336;59.944;11.010;2024-03-17T12:19:49;3.72;;;2.22;;
39654;SDS011;25336;59.944;11.010;2024-03-17T12:22:32;3.13;;;1.75;;
39654;SDS011;25336;59.944;11.010;2024-03-17T12:25:02;1.02;;;0.90;;
39654;SDS011;25336;59.944;11.010;2024-03-17T12:27:40;2.08;;;1.45;;
39654;SDS011;25336;59.944;11.010;2024-03-17T12:30:10;0.95;;;0.85;;
39654;SDS011;25336;59.944;11.010;2024-03-17T12:32:36;1.45;;;1.10;;
39654;SDS011;25336;59.944;11.010;2024-03-17T12:35:02;1.73;;;1.55;;
39654;SDS011;25336;59.944;11.010;2024-03-17T12:37:36;1.83;;;1.05;;
39654;SDS011;25336;59.944;11.010;2024-03-17T12:40:02;2.42;;;1.23;;
39654;SDS011;25336;59.944;11.010;2024-03-17T12:42:29;2.03;;;1.20;;
39654;SDS011;25336;59.944;11.010;2024-03-17T12:44:59;1.70;;;1.17;;
39654;SDS011;25336;59.944;11.010;2024-03-17T12:47:30;3.38;;;1.50;;
39654;SDS011;25336;59.944;11.010;2024-03-17T12:49:57;2.13;;;1.00;;
39654;SDS011;25336;59.944;11.010;2024-03-17T12:52:31;1.15;;;1.08;;
39654;SDS011;25336;59.944;11.010;2024-03-17T12:57:46;1.30;;;0.93;;
39654;SDS011;25336;59.944;11.010;2024-03-17T13:00:32;1.73;;;1.05;;
39654;SDS011;25336;59.944;11.010;2024-03-17T13:02:59;2.63;;;1.90;;
39654;SDS011;25336;59.944;11.010;2024-03-17T13:05:26;1.20;;;1.10;;
39654;SDS011;25336;59.944;11.010;2024-03-17T13:07:52;1.23;;;1.15;;
39654;SDS011;25336;59.944;11.010;2024-03-17T13:10:22;2.40;;;2.17;;
39654;SDS011;25336;59.944;11.010;2024-03-17T13:12:58;3.10;;;1.90;;
39654;SDS011;25336;59.944;11.010;2024-03-17T13:15:29;1.25;;;0.95;;
39654;SDS011;25336;59.944;11.010;2024-03-17T13:18:01;1.45;;;1.10;;
39654;SDS011;25336;59.944;11.010;2024-03-17T13:20:29;1.65;;;1.35;;
39654;SDS011;25336;59.944;11.010;2024-03-17T13:22:57;3.85;;;1.35;;
39654;SDS011;25336;59.944;11.010;2024-03-17T13:25:27;0.95;;;0.95;;
39654;SDS011;25336;59.944;11.010;2024-03-17T13:28:01;2.05;;;1.23;;
39654;SDS011;25336;59.944;11.010;2024-03-17T13:30:29;1.52;;;1.20;;
39654;SDS011;25336;59.944;11.010;2024-03-17T13:32:56;1.58;;;0.95;;
39654;SDS011;25336;59.944;11.010;2024-03-17T13:35:28;1.75;;;1.20;;
39654;SDS011;25336;59.944;11.010;2024-03-17T13:37:55;1.33;;;1.00;;
39654;SDS011;25336;59.944;11.010;2024-03-17T13:42:52;3.03;;;1.38;;
39654;SDS011;25336;59.944;11.010;2024-03-17T13:45:20;2.03;;;1.27;;
39654;SDS011;25336;59.944;11.010;2024-03-17T13:47:51;2.72;;;1.10;;
39654;SDS011;25336;59.944;11.010;2024-03-17T13:50:20;2.45;;;1.20;;
39654;SDS011;25336;59.944;11.010;2024-03-17T13:52:46;1.92;;;0.90;;
39654;SDS011;25336;59.944;11.010;2024-03-17T13:55:15;3.00;;;0.98;;
39654;SDS011;25336;59.944;11.010;2024-03-17T13:57:43;2.97;;;1.20;;
39654;SDS011;25336;59.944;11.010;2024-03-17T14:00:11;0.80;;;0.80;;
39654;SDS011;25336;59.944;11.010;2024-03-17T14:02:41;1.70;;;0.87;;
39654;SDS011;25336;59.944;11.010;2024-03-17T14:05:14;0.70;;;0.70;;
39654;SDS011;25336;59.944;11.010;2024-03-17T14:07:43;4.15;;;1.10;;
39654;SDS011;25336;59.944;11.010;2024-03-17T14:10:10;1.50;;;0.82;;
39654;SDS011;25336;59.944;11.010;2024-03-17T14:12:37;2.00;;;0.90;;
39654;SDS011;25336;59.944;11.010;2024-03-17T14:15:04;0.82;;;0.63;;
39654;SDS011;25336;59.944;11.010;2024-03-17T14:17:31;1.30;;;0.70;;
39654;SDS011;25336;59.944;11.010;2024-03-17T14:19:57;1.73;;;0.70;;
39654;SDS011;25336;59.944;11.010;2024-03-17T14:22:23;3.10;;;0.70;;
39654;SDS011;25336;59.944;11.010;2024-03-17T14:24:49;0.73;;;0.50;;
39654;SDS011;25336;59.944;11.010;2024-03-17T14:27:14;0.75;;;0.60;;
39654;SDS011;25336;59.944;11.010;2024-03-17T14:29:41;0.77;;;0.70;;
39654;SDS011;25336;59.944;11.010;2024-03-17T14:32:08;0.70;;;0.60;;
39654;SDS011;25336;59.944;11.010;2024-03-17T14:34:33;1.48;;;0.90;;
39654;SDS011;25336;59.944;11.010;2024-03-17T14:37:04;1.60;;;0.73;;
39654;SDS011;25336;59.944;11.010;2024-03-17T14:39:30;1.60;;;1.05;;
39654;SDS011;25336;59.944;11.010;2024-03-17T14:41:56;1.30;;;1.10;;
39654;SDS011;25336;59.944;11.010;2024-03-17T14:44:22;3.30;;;1.00;;
39654;SDS011;25336;59.944;11.010;2024-03-17T14:46:48;1.38;;;0.85;;
39654;SDS011;25336;59.944;11.010;2024-03-17T14:49:17;2.42;;;0.75;;
39654;SDS011;25336;59.944;11.010;2024-03-17T14:51:43;0.90;;;0.73;;
39654;SDS011;25336;59.944;11.010;2024-03-17T14:54:09;0.82;;;0.80;;
39654;SDS011;25336;59.944;11.010;2024-03-17T14:56:35;1.05;;;0.80;;
39654;SDS011;25336;59.944;11.010;2024-03-17T14:59:01;1.42;;;0.88;;
39654;SDS011;25336;59.944;11.010;2024-03-17T15:01:27;2.28;;;1.30;;
39654;SDS011;25336;59.944;11.010;2024-03-17T15:03:55;1.77;;;0.95;;
39654;SDS011;25336;59.944;11.010;2024-03-17T15:06:21;3.63;;;1.30;;
39654;SDS011;25336;59.944;11.010;2024-03-17T15:08:47;1.10;;;0.93;;